createdAt,value
2022-11-19T00:01:57.351Z,2.14
2022-11-19T00:04:26.717Z,2.11
2022-11-19T00:06:54.703Z,2.13
2022-11-19T00:09:22.645Z,2.14
2022-11-19T00:12:07.864Z,2.14
2022-11-19T00:14:35.988Z,2.11
2022-11-19T00:17:04.124Z,2.14
2022-11-19T00:19:33.336Z,2.11
2022-11-19T00:22:01.281Z,2.10
2022-11-19T00:24:29.318Z,2.07
2022-11-19T00:26:57.436Z,2.05
2022-11-19T00:29:25.320Z,2.05
2022-11-19T00:31:53.203Z,2.06
2022-11-19T00:34:21.162Z,2.03
2022-11-19T00:36:51.114Z,1.99
2022-11-19T00:39:19.619Z,1.99
2022-11-19T00:41:47.566Z,2.00
2022-11-19T00:44:15.397Z,2.00
2022-11-19T00:46:43.275Z,1.98
2022-11-19T00:49:11.537Z,2.02
2022-11-19T00:51:39.405Z,1.99
2022-11-19T00:54:08.766Z,2.01
2022-11-19T00:56:36.693Z,2.00
2022-11-19T00:59:05.032Z,1.99
2022-11-19T01:01:33.076Z,2.01
2022-11-19T01:04:01.218Z,2.00
2022-11-19T01:06:29.479Z,2.02
2022-11-19T01:08:58.192Z,1.94
2022-11-19T01:11:29.956Z,1.94
2022-11-19T01:13:59.683Z,1.97
2022-11-19T01:16:29.974Z,1.86
2022-11-19T01:18:58.880Z,1.91
2022-11-19T01:21:29.900Z,1.92
2022-11-19T01:23:58.979Z,1.93
2022-11-19T01:26:29.302Z,1.90
2022-11-19T01:28:57.500Z,1.90
2022-11-19T01:31:27.648Z,1.90
2022-11-19T01:33:55.677Z,1.86
2022-11-19T01:36:25.776Z,1.84
2022-11-19T01:38:54.610Z,1.86
2022-11-19T01:41:24.357Z,1.85
2022-11-19T01:43:56.112Z,1.86
2022-11-19T01:46:26.955Z,1.83
2022-11-19T01:48:59.018Z,1.82
2022-11-19T01:51:30.586Z,1.86
2022-11-19T01:54:01.950Z,1.85
2022-11-19T01:56:32.732Z,1.83
2022-11-19T01:59:06.650Z,1.83
2022-11-19T02:01:34.974Z,1.85
2022-11-19T02:04:04.998Z,1.80
2022-11-19T02:06:34.940Z,1.83
2022-11-19T02:09:02.840Z,1.81
2022-11-19T02:11:55.989Z,1.79
2022-11-19T02:14:43.054Z,1.77
2022-11-19T02:17:21.153Z,1.73
2022-11-19T02:20:27.336Z,1.71
2022-11-19T02:23:16.343Z,1.71
2022-11-19T02:26:06.842Z,1.67
2022-11-19T02:28:37.789Z,1.70
2022-11-19T02:31:12.860Z,1.72
2022-11-19T02:33:49.936Z,1.70
2022-11-19T02:36:23.227Z,1.68
2022-11-19T02:38:53.553Z,1.69
2022-11-19T02:41:35.842Z,1.69
2022-11-19T02:44:41.819Z,1.71
2022-11-19T02:47:16.042Z,1.73
2022-11-19T02:49:45.630Z,1.71
2022-11-19T02:52:15.799Z,1.72
2022-11-19T02:54:43.506Z,1.69
2022-11-19T02:57:12.277Z,1.70
2022-11-19T03:00:06.956Z,1.68
2022-11-19T03:02:57.966Z,1.69
2022-11-19T03:05:30.875Z,1.67
2022-11-19T03:07:59.218Z,1.64
2022-11-19T03:10:33.482Z,1.58
2022-11-19T03:13:29.824Z,1.59
2022-11-19T03:16:19.300Z,1.53
2022-11-19T03:18:54.895Z,1.54
2022-11-19T03:21:28.410Z,1.53
2022-11-19T03:24:01.656Z,1.51
2022-11-19T03:26:33.667Z,1.52
2022-11-19T03:29:05.705Z,1.47
2022-11-19T03:31:35.763Z,1.53
2022-11-19T03:34:10.855Z,1.56
2022-11-19T03:36:42.498Z,1.58
2022-11-19T03:39:14.528Z,1.57
2022-11-19T03:41:46.148Z,1.58
2022-11-19T03:44:17.607Z,1.60
2022-11-19T03:46:48.456Z,1.57
2022-11-19T03:49:23.240Z,1.58
2022-11-19T03:51:58.066Z,1.59
2022-11-19T03:54:25.949Z,1.58
2022-11-19T03:56:54.626Z,1.57
2022-11-19T03:59:29.443Z,1.59
2022-11-19T04:02:00.150Z,1.59
2022-11-19T04:04:38.602Z,1.60
2022-11-19T04:07:12.202Z,1.61
2022-11-19T04:09:41.665Z,1.59
2022-11-19T04:12:15.961Z,1.65
2022-11-19T04:14:43.996Z,1.63
2022-11-19T04:17:12.415Z,1.62
2022-11-19T04:19:41.697Z,1.64
2022-11-19T04:22:09.583Z,1.67
2022-11-19T04:24:37.474Z,1.65
2022-11-19T04:27:05.697Z,1.65
2022-11-19T04:29:33.642Z,1.65
2022-11-19T04:32:01.570Z,1.67
2022-11-19T04:34:29.634Z,1.68
2022-11-19T04:36:58.882Z,1.65
2022-11-19T04:39:27.127Z,1.70
2022-11-19T04:41:55.073Z,1.72
2022-11-19T04:44:22.948Z,1.71
2022-11-19T04:46:50.841Z,1.70
2022-11-19T04:49:18.964Z,1.75
2022-11-19T04:51:47.119Z,1.75
2022-11-19T04:54:16.408Z,1.73
2022-11-19T04:56:44.293Z,1.75
2022-11-19T04:59:12.369Z,1.75
2022-11-19T05:01:40.309Z,1.69
2022-11-19T05:04:08.270Z,1.75
2022-11-19T05:06:36.381Z,1.74
2022-11-19T05:09:04.425Z,1.75
2022-11-19T05:11:33.838Z,1.77
2022-11-19T05:14:01.867Z,1.77
2022-11-19T05:16:29.753Z,1.77
2022-11-19T05:18:57.646Z,1.78
2022-11-19T05:21:25.713Z,1.82
2022-11-19T05:23:53.580Z,1.80
2022-11-19T05:26:21.453Z,1.78
2022-11-19T05:28:50.841Z,1.82
2022-11-19T05:31:18.682Z,1.81
2022-11-19T05:33:46.561Z,1.82
2022-11-19T05:36:14.488Z,1.84
2022-11-19T05:38:42.380Z,1.83
2022-11-19T05:41:10.226Z,1.83
2022-11-19T05:43:38.078Z,1.84
2022-11-19T05:46:07.469Z,1.85
2022-11-19T05:48:35.474Z,1.84
2022-11-19T05:51:03.337Z,1.87
2022-11-19T05:53:31.428Z,1.88
2022-11-19T05:55:59.330Z,1.89
2022-11-19T05:58:27.236Z,1.91
2022-11-19T06:00:56.284Z,1.88
2022-11-19T06:03:25.573Z,1.86
2022-11-19T06:05:54.067Z,1.84
2022-11-19T06:08:22.331Z,1.88
2022-11-19T06:10:50.241Z,1.88
2022-11-19T06:13:18.429Z,1.86
2022-11-19T06:15:46.312Z,1.90
2022-11-19T06:18:14.216Z,1.88
2022-11-19T06:20:43.615Z,1.90
2022-11-19T06:23:11.516Z,1.89
2022-11-19T06:25:39.456Z,1.87
2022-11-19T06:28:08.134Z,1.89
2022-11-19T06:30:36.711Z,1.87
2022-11-19T06:33:04.837Z,1.89
2022-11-19T06:35:32.955Z,1.88
2022-11-19T06:38:05.215Z,1.92
2022-11-19T06:40:35.903Z,1.92
2022-11-19T06:43:03.983Z,1.93
2022-11-19T06:45:31.897Z,1.93
2022-11-19T06:47:59.810Z,1.94
2022-11-19T06:50:28.405Z,1.96
2022-11-19T06:52:56.260Z,2.00
2022-11-19T06:55:25.697Z,2.00
2022-11-19T06:57:54.006Z,2.02
2022-11-19T07:00:21.879Z,2.02
2022-11-19T07:02:49.768Z,2.00
2022-11-19T07:05:17.722Z,2.03
2022-11-19T07:07:45.634Z,2.04
2022-11-19T07:10:13.570Z,2.01
2022-11-19T07:12:42.985Z,2.02
2022-11-19T07:15:11.958Z,2.02
2022-11-19T07:17:40.213Z,2.03
2022-11-19T07:20:09.850Z,2.01
2022-11-19T07:22:37.708Z,2.02
2022-11-19T07:25:06.172Z,2.00
2022-11-19T07:27:34.044Z,1.97
2022-11-19T07:30:05.122Z,1.98
2022-11-19T07:32:33.293Z,1.97
2022-11-19T07:35:01.211Z,1.95
2022-11-19T07:37:29.239Z,1.91
2022-11-19T07:39:57.128Z,1.81
2022-11-19T07:42:42.303Z,1.81
2022-11-19T07:45:12.832Z,1.76
2022-11-19T07:47:42.208Z,1.73
2022-11-19T07:50:10.605Z,1.69
2022-11-19T07:52:38.511Z,1.65
2022-11-19T07:55:08.259Z,1.63
2022-11-19T07:57:36.290Z,1.62
2022-11-19T08:00:04.359Z,1.54
2022-11-19T08:02:33.732Z,1.56
2022-11-19T08:05:01.776Z,1.52
2022-11-19T08:07:29.862Z,1.49
2022-11-19T08:09:57.782Z,1.53
2022-11-19T08:12:26.093Z,1.52
2022-11-19T08:14:53.950Z,1.51
2022-11-19T08:17:47.661Z,1.47
2022-11-19T08:20:18.286Z,1.51
2022-11-19T08:22:46.623Z,1.51
2022-11-19T08:25:14.741Z,1.53
2022-11-19T08:27:42.647Z,1.52
2022-11-19T08:30:11.450Z,1.47
2022-11-19T08:32:39.315Z,1.47
2022-11-19T08:35:08.256Z,1.50
2022-11-19T08:37:37.542Z,1.52
2022-11-19T08:40:05.971Z,1.53
2022-11-19T08:42:51.378Z,1.54
2022-11-19T08:45:20.888Z,1.59
2022-11-19T08:47:49.221Z,1.55
2022-11-19T08:50:17.488Z,1.55
2022-11-19T08:52:47.122Z,1.59
2022-11-19T08:55:15.278Z,1.57
2022-11-19T08:57:43.191Z,1.62
2022-11-19T09:00:12.361Z,1.61
2022-11-19T09:02:40.182Z,1.62
2022-11-19T09:05:13.350Z,1.60
2022-11-19T09:07:42.608Z,1.61
2022-11-19T09:10:12.302Z,1.64
2022-11-19T09:12:40.203Z,1.66
2022-11-19T09:15:09.169Z,1.64
2022-11-19T09:17:40.140Z,1.63
2022-11-19T09:20:11.121Z,1.66
2022-11-19T09:22:39.662Z,1.64
2022-11-19T09:25:10.061Z,1.64
2022-11-19T09:27:39.525Z,1.68
2022-11-19T09:30:10.105Z,1.71
2022-11-19T09:32:38.301Z,1.69
2022-11-19T09:35:09.884Z,1.70
2022-11-19T09:37:37.736Z,1.72
2022-11-19T09:40:12.116Z,1.69
2022-11-19T09:42:52.132Z,1.72
2022-11-19T09:45:23.887Z,1.75
2022-11-19T09:48:17.388Z,1.75
2022-11-19T09:50:53.995Z,1.72
2022-11-19T09:53:23.682Z,1.75
2022-11-19T09:55:55.060Z,1.76
2022-11-19T09:58:28.919Z,1.75
2022-11-19T10:00:56.853Z,1.74
2022-11-19T10:03:32.769Z,1.79
2022-11-19T10:06:13.589Z,1.74
2022-11-19T10:08:55.210Z,1.76
2022-11-19T10:11:34.969Z,1.75
2022-11-19T10:14:14.902Z,1.76
2022-11-19T10:16:54.651Z,1.75
2022-11-19T10:19:37.538Z,1.75
2022-11-19T10:22:11.360Z,1.69
2022-11-19T10:24:44.122Z,1.74
2022-11-19T10:27:20.696Z,1.71
2022-11-19T10:29:53.673Z,1.67
2022-11-19T10:32:32.782Z,1.68
2022-11-19T10:35:08.505Z,1.72
2022-11-19T10:37:42.980Z,1.72
2022-11-19T10:40:16.862Z,1.71
2022-11-19T10:42:51.971Z,1.73
2022-11-19T10:45:25.162Z,1.65
2022-11-19T10:48:00.645Z,1.68
2022-11-19T10:50:30.568Z,1.68
2022-11-19T10:53:08.333Z,1.68
2022-11-19T10:55:40.863Z,1.70
2022-11-19T10:58:14.917Z,1.69
2022-11-19T11:00:44.592Z,1.72
2022-11-19T11:03:21.566Z,1.65
2022-11-19T11:05:59.159Z,1.70
2022-11-19T11:08:27.033Z,1.66
2022-11-19T11:10:55.459Z,1.67
2022-11-19T11:13:51.172Z,1.59
2022-11-19T11:16:23.450Z,1.61
2022-11-19T11:18:54.965Z,1.64
2022-11-19T11:21:34.277Z,1.58
2022-11-19T11:24:04.747Z,1.60
2022-11-19T11:26:35.808Z,1.62
2022-11-19T11:29:08.127Z,1.62
2022-11-19T11:31:40.172Z,1.65
2022-11-19T11:34:15.477Z,1.66
2022-11-19T11:36:45.346Z,1.66
2022-11-19T11:39:27.379Z,1.65
2022-11-19T11:42:17.519Z,1.61
2022-11-19T11:44:51.213Z,1.62
2022-11-19T11:47:23.778Z,1.63
2022-11-19T11:50:01.297Z,1.64
2022-11-19T11:52:34.935Z,1.61
2022-11-19T11:55:04.462Z,1.63
2022-11-19T11:57:34.431Z,1.63
2022-11-19T12:00:05.853Z,1.63
2022-11-19T12:02:37.039Z,1.65
2022-11-19T12:05:08.111Z,1.64
2022-11-19T12:07:59.259Z,1.64
2022-11-19T12:10:32.947Z,1.68
2022-11-19T12:13:29.349Z,1.62
2022-11-19T12:16:08.757Z,1.65
2022-11-19T12:18:48.509Z,1.66
2022-11-19T12:21:32.451Z,1.67
2022-11-19T12:24:19.010Z,1.69
2022-11-19T12:26:57.584Z,1.68
2022-11-19T12:29:37.858Z,1.64
2022-11-19T12:32:19.565Z,1.68
2022-11-19T12:35:17.185Z,1.69
2022-11-19T12:38:10.872Z,1.63
2022-11-19T12:40:47.719Z,1.65
2022-11-19T12:43:34.053Z,1.65
2022-11-19T12:46:11.619Z,1.62
2022-11-19T12:48:53.703Z,1.62
2022-11-19T12:51:38.937Z,1.61
2022-11-19T12:54:30.315Z,1.60
2022-11-19T12:57:22.761Z,1.57
2022-11-19T13:00:07.506Z,1.58
2022-11-19T13:02:41.374Z,1.63
2022-11-19T13:05:15.413Z,1.58
2022-11-19T13:07:52.876Z,1.56
2022-11-19T13:10:25.645Z,1.57
2022-11-19T13:12:57.354Z,1.55
2022-11-19T13:15:31.192Z,1.59
2022-11-19T13:18:02.490Z,1.56
2022-11-19T13:20:38.396Z,1.58
2022-11-19T13:23:08.494Z,1.57
2022-11-19T13:25:37.931Z,1.49
2022-11-19T13:28:20.963Z,1.52
2022-11-19T13:30:51.254Z,1.57
2022-11-19T13:33:26.374Z,1.56
2022-11-19T13:36:03.411Z,1.53
2022-11-19T13:38:44.682Z,1.57
2022-11-19T13:41:17.605Z,1.55
2022-11-19T13:44:03.506Z,1.50
2022-11-19T13:46:37.540Z,1.39
2022-11-19T13:49:12.719Z,1.35
2022-11-19T13:51:43.796Z,1.24
2022-11-19T13:54:25.407Z,1.21
2022-11-19T13:56:56.985Z,1.14
2022-11-19T13:59:32.290Z,1.13
2022-11-19T14:02:29.073Z,1.03
2022-11-19T14:05:17.530Z,0.98
2022-11-19T14:08:09.094Z,0.93
2022-11-19T14:10:46.848Z,0.86
2022-11-19T14:13:28.850Z,0.87
2022-11-19T14:16:31.799Z,0.85
2022-11-19T14:19:21.767Z,0.84
2022-11-19T14:22:09.995Z,0.86
2022-11-19T14:25:15.416Z,0.81
2022-11-19T14:27:47.352Z,0.79
2022-11-19T14:30:18.670Z,0.77
2022-11-19T14:32:50.044Z,0.71
2022-11-19T14:35:38.547Z,0.70
2022-11-19T14:38:30.026Z,0.66
2022-11-19T14:41:08.246Z,0.61
2022-11-19T14:44:09.859Z,0.60
2022-11-19T14:46:47.827Z,0.54
2022-11-19T14:49:31.979Z,0.49
2022-11-19T14:52:00.477Z,0.45
2022-11-19T14:54:35.090Z,0.45
2022-11-19T14:57:15.284Z,0.40
2022-11-19T14:59:49.668Z,0.35
2022-11-19T15:02:24.809Z,0.31
2022-11-19T15:05:04.992Z,0.25
2022-11-19T15:07:43.381Z,0.20
2022-11-19T15:10:46.222Z,0.19
2022-11-19T15:13:32.531Z,0.17
2022-11-19T15:16:10.148Z,0.16
2022-11-19T15:19:22.846Z,0.11
2022-11-19T15:22:29.869Z,0.06
2022-11-19T15:25:20.296Z,0.03
2022-11-19T15:27:58.283Z,0.08
2022-11-19T15:30:39.006Z,0.05
2022-11-19T15:33:34.445Z,-0.01
2022-11-19T15:36:27.748Z,-0.02
2022-11-19T15:39:01.525Z,-0.04
2022-11-19T15:41:32.929Z,-0.04
2022-11-19T15:44:07.122Z,-0.07
2022-11-19T15:46:41.422Z,-0.08
2022-11-19T15:49:19.106Z,-0.06
2022-11-19T15:52:01.426Z,-0.10
2022-11-19T15:54:31.022Z,-0.10
2022-11-19T15:57:01.395Z,-0.08
2022-11-19T15:59:31.595Z,-0.09
2022-11-19T16:02:02.223Z,-0.13
2022-11-19T16:04:38.505Z,-0.12
2022-11-19T16:07:09.651Z,-0.16
2022-11-19T16:09:38.975Z,-0.15
2022-11-19T16:12:24.757Z,-0.17
2022-11-19T16:15:12.278Z,-0.18
2022-11-19T16:17:45.474Z,-0.17
2022-11-19T16:20:24.121Z,-0.20
2022-11-19T16:22:56.484Z,-0.20
2022-11-19T16:25:34.049Z,-0.16
2022-11-19T16:28:06.065Z,-0.20
2022-11-19T16:30:46.710Z,-0.20
2022-11-19T16:33:18.774Z,-0.17
2022-11-19T16:35:52.809Z,-0.14
2022-11-19T16:38:27.967Z,-0.11
2022-11-19T16:41:14.206Z,-0.10
2022-11-19T16:43:45.173Z,-0.11
2022-11-19T16:46:16.094Z,-0.10
2022-11-19T16:49:03.438Z,-0.06
2022-11-19T16:51:39.859Z,-0.01
2022-11-19T16:54:09.594Z,-0.06
2022-11-19T16:56:43.967Z,0.02
2022-11-19T16:59:20.445Z,0.03
2022-11-19T17:01:57.250Z,0.09
2022-11-19T17:04:28.530Z,0.11
2022-11-19T17:06:58.608Z,0.12
2022-11-19T17:09:33.339Z,0.14
2022-11-19T17:12:19.408Z,0.18
2022-11-19T17:14:51.081Z,0.20
2022-11-19T17:17:40.378Z,0.25
2022-11-19T17:21:01.225Z,0.28
2022-11-19T17:23:31.722Z,0.26
2022-11-19T17:26:01.957Z,0.31
2022-11-19T17:28:35.177Z,0.33
2022-11-19T17:31:06.473Z,0.33
2022-11-19T17:33:36.743Z,0.35
2022-11-19T17:36:05.317Z,0.38
2022-11-19T17:38:35.119Z,0.39
2022-11-19T17:41:07.443Z,0.38
2022-11-19T17:43:55.339Z,0.40
2022-11-19T17:46:24.478Z,0.41
2022-11-19T17:48:53.953Z,0.39
2022-11-19T17:51:24.283Z,0.41
2022-11-19T17:53:54.369Z,0.38
2022-11-19T17:56:23.693Z,0.39
2022-11-19T17:58:51.621Z,0.42
2022-11-19T18:01:20.409Z,0.42
2022-11-19T18:03:49.167Z,0.41
2022-11-19T18:06:19.161Z,0.44
2022-11-19T18:08:47.284Z,0.41
2022-11-19T18:11:18.846Z,0.43
2022-11-19T18:13:48.572Z,0.46
2022-11-19T18:16:18.949Z,0.47
2022-11-19T18:18:46.886Z,0.47
2022-11-19T18:21:16.385Z,0.49
2022-11-19T18:23:46.344Z,0.49
2022-11-19T18:26:17.122Z,0.52
2022-11-19T18:28:48.752Z,0.54
2022-11-19T18:31:20.046Z,0.53
2022-11-19T18:33:49.258Z,0.53
2022-11-19T18:36:17.886Z,0.55
2022-11-19T18:38:46.157Z,0.56
2022-11-19T18:41:18.909Z,0.57
2022-11-19T18:44:04.781Z,0.57
2022-11-19T18:46:32.987Z,0.59
2022-11-19T18:49:00.938Z,0.62
2022-11-19T18:51:31.234Z,0.65
2022-11-19T18:53:59.592Z,0.66
2022-11-19T18:56:30.843Z,0.64
2022-11-19T18:59:03.352Z,0.70
2022-11-19T19:01:32.821Z,0.70
2022-11-19T19:04:02.135Z,0.72
2022-11-19T19:06:30.422Z,0.73
2022-11-19T19:08:58.326Z,0.74
2022-11-19T19:11:43.645Z,0.76
2022-11-19T19:14:12.951Z,0.73
2022-11-19T19:16:40.797Z,0.74
2022-11-19T19:19:08.804Z,0.78
2022-11-19T19:21:36.783Z,0.78
2022-11-19T19:24:06.017Z,0.80
2022-11-19T19:26:34.638Z,0.79
2022-11-19T19:29:03.087Z,0.81
2022-11-19T19:31:32.536Z,0.81
2022-11-19T19:34:00.752Z,0.81
2022-11-19T19:36:29.049Z,0.80
2022-11-19T19:38:56.895Z,0.82
2022-11-19T19:41:26.869Z,0.81
2022-11-19T19:43:57.366Z,0.82
2022-11-19T19:46:25.566Z,0.83
2022-11-19T19:48:56.824Z,0.84
2022-11-19T19:51:26.341Z,0.83
2022-11-19T19:53:55.021Z,0.81
2022-11-19T19:56:24.681Z,0.84
2022-11-19T19:58:53.092Z,0.87
2022-11-19T20:01:24.205Z,0.87
2022-11-19T20:03:54.732Z,0.84
2022-11-19T20:06:24.759Z,0.85
2022-11-19T20:08:53.088Z,0.82
2022-11-19T20:11:24.641Z,0.82
2022-11-19T20:13:52.996Z,0.85
2022-11-19T20:16:22.841Z,0.82
2022-11-19T20:18:51.859Z,0.84
2022-11-19T20:21:22.308Z,0.85
2022-11-19T20:23:52.154Z,0.87
2022-11-19T20:26:21.775Z,0.89
2022-11-19T20:28:54.925Z,0.87
2022-11-19T20:31:22.765Z,0.83
2022-11-19T20:33:53.763Z,0.87
2022-11-19T20:36:23.246Z,0.81
2022-11-19T20:38:52.847Z,0.85
2022-11-19T20:41:39.793Z,0.85
2022-11-19T20:44:23.526Z,0.83
2022-11-19T20:46:53.443Z,0.81
2022-11-19T20:49:23.474Z,0.81
2022-11-19T20:51:52.726Z,0.83
2022-11-19T20:54:22.629Z,0.82
2022-11-19T20:56:52.023Z,0.82
2022-11-19T20:59:20.630Z,0.81
2022-11-19T21:01:48.992Z,0.83
2022-11-19T21:04:17.425Z,0.86
2022-11-19T21:06:45.311Z,0.82
2022-11-19T21:09:14.810Z,0.79
2022-11-19T21:11:45.132Z,0.78
2022-11-19T21:14:13.610Z,0.79
2022-11-19T21:16:41.739Z,0.78
2022-11-19T21:19:10.542Z,0.78
2022-11-19T21:21:38.855Z,0.82
2022-11-19T21:24:07.758Z,0.83
2022-11-19T21:26:35.909Z,0.82
2022-11-19T21:29:05.358Z,0.78
2022-11-19T21:31:42.241Z,0.78
2022-11-19T21:34:12.573Z,0.81
2022-11-19T21:36:41.934Z,0.83
2022-11-19T21:39:11.212Z,0.83
2022-11-19T21:41:39.667Z,0.84
2022-11-19T21:44:09.150Z,0.85
2022-11-19T21:46:38.118Z,0.86
2022-11-19T21:49:06.418Z,0.88
2022-11-19T21:51:34.649Z,0.92
2022-11-19T21:54:02.560Z,0.90
2022-11-19T21:56:33.853Z,0.93
2022-11-19T21:59:06.252Z,0.94
2022-11-19T22:01:36.082Z,0.93
2022-11-19T22:04:04.494Z,0.97
2022-11-19T22:06:33.468Z,0.96
2022-11-19T22:09:01.387Z,0.94
2022-11-19T22:11:32.416Z,0.97
2022-11-19T22:14:02.949Z,0.94
2022-11-19T22:16:31.453Z,0.96
2022-11-19T22:19:01.148Z,0.96
2022-11-19T22:21:30.290Z,0.96
2022-11-19T22:23:58.772Z,0.95
2022-11-19T22:26:27.047Z,0.98
2022-11-19T22:28:55.588Z,1.00
2022-11-19T22:31:24.194Z,0.98
2022-11-19T22:33:53.930Z,1.00
2022-11-19T22:36:24.449Z,0.99
2022-11-19T22:38:53.192Z,1.03
2022-11-19T22:41:22.781Z,1.02
2022-11-19T22:43:51.105Z,1.04
2022-11-19T22:46:20.286Z,1.06
2022-11-19T22:48:48.573Z,1.05
2022-11-19T22:51:18.068Z,1.07
2022-11-19T22:53:48.975Z,1.10
2022-11-19T22:56:18.650Z,1.13
2022-11-19T22:58:46.728Z,1.10
2022-11-19T23:01:18.284Z,1.12
2022-11-19T23:03:46.989Z,1.15
2022-11-19T23:06:15.693Z,1.14
2022-11-19T23:08:43.720Z,1.13
2022-11-19T23:11:14.587Z,1.13
2022-11-19T23:13:43.620Z,1.11
2022-11-19T23:16:13.856Z,1.13
2022-11-19T23:18:46.964Z,1.12
2022-11-19T23:21:17.765Z,1.10
2022-11-19T23:23:46.077Z,1.13
2022-11-19T23:26:17.309Z,1.14
2022-11-19T23:28:46.318Z,1.14
2022-11-19T23:31:16.784Z,1.14
2022-11-19T23:33:45.149Z,1.12
2022-11-19T23:36:15.286Z,1.13
2022-11-19T23:38:43.313Z,1.09
2022-11-19T23:41:13.089Z,1.08
2022-11-19T23:43:42.533Z,1.13
2022-11-19T23:46:13.431Z,1.15
2022-11-19T23:48:43.056Z,1.14
2022-11-19T23:51:12.584Z,1.16
2022-11-19T23:53:40.650Z,1.15
2022-11-19T23:56:09.149Z,1.15
2022-11-19T23:58:38.003Z,1.17
